Wintergreen, Virginia
Current Conditions -  °F | °C
As of 2:35 PM on Thursday 23 Oct 2014 (Local Time) from KW13 Reporting Station
Clear Clear  
Wind Chill: 62°   Ceiling: Unl
Heat Index: 62°   Visibility: 10mi
Dew Point: 42°   Wind: 12mph
Humidity: 47%   Direction: 330°NNW
Pressure: 29.95"   Gusts: 21mph
Location:  37.8814°N, 78.882°W
Report Text: KW13 231835Z AUTO 33010G18KT 10SM CLR 17/05 A2995 RMK AO1 T01670053
Loading
Personal Weather Stations






























Interactive Weather Map
Tropical Storm Tracking
New forecast layout! Learn more

10-Day Weather Forecast

Advertisements
Track Severe Weather on mobile